Time;durP1;ratioP1;P1;durP2;ratioP2;P2;SDS_P1;SDS_P2;PMS_P1;PMS_P2;Temp;Humidity;BMP_temperature;BMP_pressure;BME280_temperature;BME280_humidity;BME280_pressure;Samples;Min_cycle;Max_cycle;Signal;HPM_P1;HPM_P2
2023/01/16 00:01:56;;;;;;;;;;;4.30;99.90;;;;;;5054094;28;20400;-68
2023/01/16 00:04:22;;;;;;;;;;;4.20;99.90;;;;;;4979769;28;206995;-69
2023/01/16 00:06:48;;;;;;;;;;;4.20;99.90;;;;;;5057510;28;19924;-69
2023/01/16 00:09:14;;;;;;;;;;;4.10;99.90;;;;;;4976169;28;218923;-69
2023/01/16 00:11:40;;;;;;;;;;;4.00;99.90;;;;;;5051031;28;20333;-69
2023/01/16 00:14:06;;;;;;;;;;;4.00;99.90;;;;;;4995619;28;207866;-69
2023/01/16 00:16:32;;;;;;;;;;;4.00;99.90;;;;;;5052657;28;19928;-69
2023/01/16 00:18:58;;;;;;;;;;;3.90;99.90;;;;;;4984338;28;208493;-68
2023/01/16 00:21:25;;;;;;;;;;;3.80;99.90;;;;;;5037490;28;19925;-69
2023/01/16 00:23:53;;;;;;;;;;;3.80;99.90;;;;;;4996837;28;211494;-68
2023/01/16 00:26:19;;;;;;;;;;;3.80;99.90;;;;;;5050724;28;19936;-69
2023/01/16 00:28:45;;;;;;;;;;;3.70;99.90;;;;;;4987489;28;206902;-69
2023/01/16 00:31:11;;;;;;;;;;;3.70;99.90;;;;;;5016246;28;19978;-68
2023/01/16 00:33:37;;;;;;;;;;;3.60;99.90;;;;;;4984609;28;217323;-68
2023/01/16 00:36:03;;;;;;;;;;;3.60;99.90;;;;;;5040827;28;19931;-70
2023/01/16 00:38:34;;;;;;;;;;;3.60;99.90;;;;;;4971717;28;91848;-72
2023/01/16 00:41:00;;;;;;;;;;;3.50;99.90;;;;;;5018532;28;19929;-68
2023/01/16 00:43:26;;;;;;;;;;;3.50;99.90;;;;;;4986701;28;206255;-69
2023/01/16 00:45:52;;;;;;;;;;;3.40;99.90;;;;;;5032034;28;20330;-69
2023/01/16 00:48:18;;;;;;;;;;;3.40;99.90;;;;;;5001138;28;211148;-69
2023/01/16 00:50:44;;;;;;;;;;;3.30;99.90;;;;;;5041655;28;19929;-68
2023/01/16 00:53:10;;;;;;;;;;;3.30;99.90;;;;;;5000096;28;215178;-68
2023/01/16 00:55:36;;;;;;;;;;;3.30;99.90;;;;;;5046121;28;20410;-69
2023/01/16 00:58:03;;;;;;;;;;;3.30;99.90;;;;;;4979098;28;82888;-69
2023/01/16 01:00:29;;;;;;;;;;;3.30;99.90;;;;;;4982736;28;19925;-68
2023/01/16 01:02:55;;;;;;;;;;;3.30;99.90;;;;;;4983556;28;204107;-68
2023/01/16 01:05:21;;;;;;;;;;;3.20;99.90;;;;;;5027058;28;20500;-69
2023/01/16 01:07:47;;;;;;;;;;;3.30;99.90;;;;;;5002530;28;208037;-69
2023/01/16 01:10:13;;;;;;;;;;;3.20;99.90;;;;;;5020940;28;19924;-68
2023/01/16 01:12:39;;;;;;;;;;;3.20;99.90;;;;;;4995323;28;206473;-69
2023/01/16 01:15:05;;;;;;;;;;;3.20;99.90;;;;;;5024696;28;19932;-69
2023/01/16 01:17:31;;;;;;;;;;;3.20;99.90;;;;;;5017586;28;206144;-69
2023/01/16 01:19:57;;;;;;;;;;;3.20;99.90;;;;;;4993866;28;209239;-69
2023/01/16 01:22:23;;;;;;;;;;;3.20;99.90;;;;;;5043515;28;207663;-71
2023/01/16 01:24:49;;;;;;;;;;;3.30;99.90;;;;;;4996256;28;211666;-69
2023/01/16 01:27:15;;;;;;;;;;;3.20;99.90;;;;;;5046983;28;19925;-69
2023/01/16 01:29:41;;;;;;;;;;;3.20;99.90;;;;;;4962458;28;222312;-68
2023/01/16 01:32:07;;;;;;;;;;;3.20;99.90;;;;;;5028908;28;20337;-69
2023/01/16 01:34:34;;;;;;;;;;;3.20;99.90;;;;;;4985441;28;209300;-68
2023/01/16 01:37:01;;;;;;;;;;;3.20;99.90;;;;;;5055984;28;19925;-68
2023/01/16 01:39:26;;;;;;;;;;;3.20;99.90;;;;;;4976742;28;209513;-68
2023/01/16 01:42:41;;;;;;;;;;;3.30;99.90;;;;;;5052093;28;20313;-67
2023/01/16 01:44:45;;;;;;;;;;;3.30;99.90;;;;;;4970485;28;208492;-69
2023/01/16 01:47:11;;;;;;;;;;;3.30;99.90;;;;;;5053040;28;19936;-69
2023/01/16 01:49:37;;;;;;;;;;;3.40;99.90;;;;;;4978542;28;28750;-69
2023/01/16 01:52:05;;;;;;;;;;;3.50;99.90;;;;;;5047431;28;19978;-69
2023/01/16 01:54:45;;;;;;;;;;;3.60;99.90;;;;;;4967368;28;215713;-68
2023/01/16 01:57:13;;;;;;;;;;;3.60;99.90;;;;;;5050547;28;20302;-69
2023/01/16 01:59:45;;;;;;;;;;;3.70;99.90;;;;;;4962362;28;206289;-68
2023/01/16 02:02:16;;;;;;;;;;;3.60;99.90;;;;;;5049987;28;20402;-68
2023/01/16 02:04:43;;;;;;;;;;;3.60;99.90;;;;;;4948534;28;135222;-68
2023/01/16 02:07:11;;;;;;;;;;;3.60;99.90;;;;;;5053275;28;19924;-69
2023/01/16 02:09:38;;;;;;;;;;;3.60;99.90;;;;;;4980958;28;211616;-68
2023/01/16 02:12:06;;;;;;;;;;;3.50;99.90;;;;;;5054293;28;19924;-68
2023/01/16 02:14:33;;;;;;;;;;;3.60;99.90;;;;;;4974158;28;208130;-69
2023/01/16 02:20:05;;;;;;;;;;;3.60;99.90;;;;;;4985980;28;188531;-68
2023/01/16 02:22:40;;;;;;;;;;;3.70;99.90;;;;;;5052884;27;215182;-68
2023/01/16 02:25:28;;;;;;;;;;;3.60;99.90;;;;;;5039163;28;19928;-69
2023/01/16 02:28:13;;;;;;;;;;;3.70;99.90;;;;;;4981469;28;217350;-69
2023/01/16 02:30:51;;;;;;;;;;;3.70;99.90;;;;;;5034816;28;20382;-69
2023/01/16 02:33:32;;;;;;;;;;;3.80;99.90;;;;;;4985318;28;209972;-68
2023/01/16 02:36:04;;;;;;;;;;;3.80;99.90;;;;;;5046760;28;20008;-69
2023/01/16 02:38:30;;;;;;;;;;;3.70;99.90;;;;;;4984873;28;229566;-69
2023/01/16 02:40:58;;;;;;;;;;;3.70;99.90;;;;;;5020461;28;19931;-70
2023/01/16 02:43:33;;;;;;;;;;;3.70;99.90;;;;;;4988441;28;206656;-69
2023/01/16 02:46:02;;;;;;;;;;;3.60;99.90;;;;;;5025241;28;19963;-69
2023/01/16 02:48:33;;;;;;;;;;;3.60;99.90;;;;;;4979408;28;212974;-70
2023/01/16 02:51:03;;;;;;;;;;;3.60;99.90;;;;;;5038277;28;19928;-69
2023/01/16 02:53:36;;;;;;;;;;;3.50;99.90;;;;;;4977880;28;211724;-69
2023/01/16 02:56:08;;;;;;;;;;;3.50;99.90;;;;;;5035361;28;19931;-69
2023/01/16 02:58:43;;;;;;;;;;;3.50;99.90;;;;;;4973596;28;201244;-69
2023/01/16 03:01:09;;;;;;;;;;;3.50;99.90;;;;;;5025064;28;19928;-69
2023/01/16 03:04:03;;;;;;;;;;;3.50;99.90;;;;;;4964695;28;237562;-67
2023/01/16 03:06:44;;;;;;;;;;;3.50;99.90;;;;;;5035714;28;19936;-68
2023/01/16 03:09:10;;;;;;;;;;;3.40;99.90;;;;;;4988253;28;211162;-69
2023/01/16 03:11:47;;;;;;;;;;;3.30;99.90;;;;;;5045251;28;19925;-69
2023/01/16 03:14:16;;;;;;;;;;;3.30;99.90;;;;;;4975491;28;214046;-68
2023/01/16 03:16:42;;;;;;;;;;;3.30;99.90;;;;;;5049276;28;19924;-69
2023/01/16 03:19:19;;;;;;;;;;;3.30;99.90;;;;;;4968196;28;212602;-69
2023/01/16 03:22:00;;;;;;;;;;;3.30;99.90;;;;;;5049312;28;20313;-69
2023/01/16 03:24:26;;;;;;;;;;;3.30;99.90;;;;;;4962597;28;227602;-67
2023/01/16 03:26:56;;;;;;;;;;;3.40;99.90;;;;;;5045667;28;20507;-68
2023/01/16 03:29:31;;;;;;;;;;;3.40;99.90;;;;;;4991899;28;206038;-68
2023/01/16 03:32:06;;;;;;;;;;;3.40;99.90;;;;;;5055753;28;19928;-69
2023/01/16 03:34:38;;;;;;;;;;;3.40;99.90;;;;;;4980832;28;207648;-70
2023/01/16 03:37:10;;;;;;;;;;;3.40;99.90;;;;;;5054692;28;19931;-69
2023/01/16 03:39:40;;;;;;;;;;;3.50;99.90;;;;;;4979220;28;208496;-68
2023/01/16 03:42:08;;;;;;;;;;;3.50;99.90;;;;;;5048624;28;19925;-69
2023/01/16 03:44:39;;;;;;;;;;;3.50;99.90;;;;;;4970530;28;207558;-69
2023/01/16 03:47:09;;;;;;;;;;;3.40;99.90;;;;;;5050687;28;19935;-68
2023/01/16 03:49:38;;;;;;;;;;;3.50;99.90;;;;;;4976474;28;209058;-68
2023/01/16 03:52:05;;;;;;;;;;;3.50;99.90;;;;;;5054809;28;20396;-67
2023/01/16 03:54:31;;;;;;;;;;;3.60;99.90;;;;;;4970553;28;208891;-68
2023/01/16 03:57:15;;;;;;;;;;;3.70;99.90;;;;;;5052833;28;19967;-67
2023/01/16 03:59:42;;;;;;;;;;;3.70;99.90;;;;;;4998792;28;210823;-69
2023/01/16 04:02:13;;;;;;;;;;;3.80;99.90;;;;;;5049073;28;20361;-69
2023/01/16 04:04:57;;;;;;;;;;;3.80;99.90;;;;;;4967529;28;207275;-68
2023/01/16 04:07:29;;;;;;;;;;;3.80;99.90;;;;;;5040589;28;212558;-67
2023/01/16 04:10:00;;;;;;;;;;;3.80;99.90;;;;;;4986918;28;63440;-69
2023/01/16 04:12:29;;;;;;;;;;;3.80;99.90;;;;;;5015679;28;207551;-69
2023/01/16 04:14:57;;;;;;;;;;;3.90;99.90;;;;;;4978440;28;19931;-68
2023/01/16 04:17:24;;;;;;;;;;;3.90;99.90;;;;;;5024797;28;212014;-68
2023/01/16 04:19:50;;;;;;;;;;;3.90;99.90;;;;;;4976134;28;62927;-69
2023/01/16 04:22:19;;;;;;;;;;;4.00;99.90;;;;;;5049173;28;19928;-69
2023/01/16 04:24:46;;;;;;;;;;;3.90;99.90;;;;;;4961448;28;81307;-69
2023/01/16 04:27:11;;;;;;;;;;;4.00;99.90;;;;;;5047380;28;19936;-68
2023/01/16 04:29:37;;;;;;;;;;;4.00;99.90;;;;;;4954488;28;253563;-69
2023/01/16 04:32:03;;;;;;;;;;;4.00;99.90;;;;;;5048528;28;20304;-70
2023/01/16 04:34:29;;;;;;;;;;;4.00;99.90;;;;;;4983496;28;212621;-69
2023/01/16 04:36:55;;;;;;;;;;;4.00;99.90;;;;;;5054653;28;19920;-67
2023/01/16 04:39:21;;;;;;;;;;;4.10;99.90;;;;;;4983255;28;206523;-68
2023/01/16 04:41:50;;;;;;;;;;;4.10;99.90;;;;;;5050614;28;19936;-68
2023/01/16 04:44:16;;;;;;;;;;;4.10;99.90;;;;;;4960409;28;95768;-69
2023/01/16 04:46:42;;;;;;;;;;;4.20;99.90;;;;;;5034073;28;20262;-69
2023/01/16 04:49:09;;;;;;;;;;;4.20;99.90;;;;;;4970634;28;210294;-70
2023/01/16 04:51:36;;;;;;;;;;;4.20;99.90;;;;;;5045906;28;19940;-69
2023/01/16 04:54:03;;;;;;;;;;;4.20;99.90;;;;;;4964880;28;178919;-69
2023/01/16 04:56:29;;;;;;;;;;;4.20;99.90;;;;;;5043732;28;19932;-68
2023/01/16 04:58:55;;;;;;;;;;;4.20;99.90;;;;;;4982651;28;206736;-69
2023/01/16 05:01:21;;;;;;;;;;;4.20;99.90;;;;;;5040082;28;20472;-69
2023/01/16 05:03:47;;;;;;;;;;;4.20;99.90;;;;;;4970754;28;207889;-68
2023/01/16 05:06:13;;;;;;;;;;;4.20;99.90;;;;;;5040770;28;19924;-69
2023/01/16 05:08:39;;;;;;;;;;;4.10;99.90;;;;;;4975998;28;114036;-68
2023/01/16 05:11:05;;;;;;;;;;;4.10;99.90;;;;;;5029713;28;20409;-68
2023/01/16 05:13:31;;;;;;;;;;;4.00;99.90;;;;;;4976750;28;177236;-69
2023/01/16 05:15:57;;;;;;;;;;;3.90;99.90;;;;;;5035567;28;20451;-69
2023/01/16 05:18:23;;;;;;;;;;;3.90;99.90;;;;;;4992968;28;209868;-69
2023/01/16 05:20:49;;;;;;;;;;;3.80;99.90;;;;;;5000302;28;19954;-68
2023/01/16 05:23:15;;;;;;;;;;;3.80;99.90;;;;;;4991105;28;207480;-69
2023/01/16 05:25:42;;;;;;;;;;;3.70;99.90;;;;;;5041588;28;19928;-68
2023/01/16 05:28:08;;;;;;;;;;;3.70;99.90;;;;;;4986664;28;206091;-68
2023/01/16 05:30:34;;;;;;;;;;;3.60;99.90;;;;;;5036575;28;19924;-67
2023/01/16 05:33:01;;;;;;;;;;;3.50;99.90;;;;;;5009250;28;207887;-67
2023/01/16 05:35:27;;;;;;;;;;;3.50;99.90;;;;;;5048196;28;19925;-67
2023/01/16 05:37:53;;;;;;;;;;;3.40;99.90;;;;;;5013525;28;213762;-69
2023/01/16 05:40:19;;;;;;;;;;;3.40;99.90;;;;;;5023857;28;19929;-69
2023/01/16 05:42:47;;;;;;;;;;;3.40;99.90;;;;;;4979591;28;207260;-68
2023/01/16 05:45:13;;;;;;;;;;;3.30;99.90;;;;;;5003697;28;19916;-69
2023/01/16 05:47:39;;;;;;;;;;;3.30;99.90;;;;;;4997993;28;227473;-69
2023/01/16 05:50:06;;;;;;;;;;;3.30;99.90;;;;;;5022218;28;19925;-68
2023/01/16 05:52:32;;;;;;;;;;;3.30;99.90;;;;;;5014938;28;209319;-68
2023/01/16 05:54:58;;;;;;;;;;;3.20;99.90;;;;;;5000728;28;213199;-68
2023/01/16 05:57:23;;;;;;;;;;;3.20;99.90;;;;;;5035771;28;208199;-68
2023/01/16 05:59:50;;;;;;;;;;;3.30;99.90;;;;;;4981119;28;187014;-71
2023/01/16 06:02:17;;;;;;;;;;;3.30;99.90;;;;;;5044816;28;19929;-69
2023/01/16 06:04:42;;;;;;;;;;;3.30;99.90;;;;;;4958574;28;207790;-69
2023/01/16 06:07:08;;;;;;;;;;;3.30;99.90;;;;;;5048756;28;20024;-69
2023/01/16 06:09:34;;;;;;;;;;;3.30;99.90;;;;;;4970062;28;207965;-69
2023/01/16 06:12:00;;;;;;;;;;;3.30;99.90;;;;;;5047586;28;19925;-68
2023/01/16 06:14:26;;;;;;;;;;;3.40;99.90;;;;;;4974467;28;207231;-70
2023/01/16 06:16:52;;;;;;;;;;;3.40;99.90;;;;;;5029534;28;19932;-68
2023/01/16 06:19:18;;;;;;;;;;;3.40;99.90;;;;;;4962101;28;255468;-69
2023/01/16 06:21:44;;;;;;;;;;;3.40;99.90;;;;;;5042449;28;20561;-68
2023/01/16 06:24:10;;;;;;;;;;;3.40;99.90;;;;;;4989577;28;207134;-69
2023/01/16 06:26:36;;;;;;;;;;;3.40;99.90;;;;;;5031464;28;19920;-69
2023/01/16 06:29:02;;;;;;;;;;;3.30;99.90;;;;;;4982501;28;207669;-70
2023/01/16 06:31:28;;;;;;;;;;;3.20;99.90;;;;;;5026620;28;20273;-68
2023/01/16 06:33:54;;;;;;;;;;;3.20;99.90;;;;;;4978188;28;210121;-69
2023/01/16 06:36:20;;;;;;;;;;;3.10;99.90;;;;;;5029311;28;19931;-69
2023/01/16 06:38:46;;;;;;;;;;;3.20;99.90;;;;;;4988956;28;207537;-70
2023/01/16 06:41:12;;;;;;;;;;;3.10;99.90;;;;;;5045699;28;19925;-69
2023/01/16 06:43:37;;;;;;;;;;;3.10;99.90;;;;;;4993817;28;217818;-69
2023/01/16 06:46:03;;;;;;;;;;;3.10;99.90;;;;;;5047380;28;19925;-69
2023/01/16 06:48:31;;;;;;;;;;;3.10;99.90;;;;;;4992750;28;208138;-69
2023/01/16 06:50:58;;;;;;;;;;;3.10;99.90;;;;;;5040406;28;19925;-70
2023/01/16 06:53:24;;;;;;;;;;;3.10;99.90;;;;;;4988145;28;206350;-69
2023/01/16 06:55:50;;;;;;;;;;;3.10;99.90;;;;;;5039287;28;19928;-69
2023/01/16 06:58:16;;;;;;;;;;;3.10;99.90;;;;;;5001711;28;208185;-71
2023/01/16 07:00:42;;;;;;;;;;;3.10;99.90;;;;;;5039411;28;19925;-69
2023/01/16 07:03:08;;;;;;;;;;;3.10;99.90;;;;;;4986874;28;59326;-70
2023/01/16 07:05:34;;;;;;;;;;;3.10;99.90;;;;;;5043440;28;19924;-67
2023/01/16 07:08:00;;;;;;;;;;;3.10;99.90;;;;;;5001575;28;209979;-69
2023/01/16 07:10:26;;;;;;;;;;;3.10;99.90;;;;;;5052206;28;20011;-68
2023/01/16 07:12:52;;;;;;;;;;;3.10;99.90;;;;;;5000988;28;207422;-68
2023/01/16 07:23:38;;;;;;;;;;;3.00;99.90;;;;;;4984443;28;205683;-69
2023/01/16 07:26:04;;;;;;;;;;;3.10;99.90;;;;;;5040084;28;19927;-69
2023/01/16 07:28:31;;;;;;;;;;;3.00;99.90;;;;;;4996821;28;205836;-69
2023/01/16 07:30:57;;;;;;;;;;;3.00;99.90;;;;;;5040069;28;19924;-70
2023/01/16 07:33:23;;;;;;;;;;;3.00;99.90;;;;;;4997836;28;229190;-70
2023/01/16 07:35:49;;;;;;;;;;;3.00;99.90;;;;;;5049064;28;20768;-70
2023/01/16 07:38:15;;;;;;;;;;;3.00;99.90;;;;;;4995872;28;206582;-70
2023/01/16 07:40:41;;;;;;;;;;;3.00;99.90;;;;;;5016982;28;19935;-70
2023/01/16 07:43:08;;;;;;;;;;;3.00;99.90;;;;;;4980440;28;123483;-69
2023/01/16 07:45:34;;;;;;;;;;;3.00;99.90;;;;;;5030856;28;19925;-69
2023/01/16 07:48:00;;;;;;;;;;;3.00;99.90;;;;;;4983953;28;205027;-70
2023/01/16 07:50:27;;;;;;;;;;;3.00;99.90;;;;;;5030929;28;19930;-70
2023/01/16 07:52:53;;;;;;;;;;;3.00;99.90;;;;;;4994380;28;206755;-70
2023/01/16 07:55:19;;;;;;;;;;;3.10;99.90;;;;;;5042226;28;19929;-72
2023/01/16 07:57:45;;;;;;;;;;;3.10;99.90;;;;;;4992642;28;217313;-69
2023/01/16 08:00:11;;;;;;;;;;;3.10;99.90;;;;;;5029596;28;20035;-69
2023/01/16 08:02:38;;;;;;;;;;;3.10;99.90;;;;;;4991909;28;208622;-71
2023/01/16 08:05:04;;;;;;;;;;;3.10;99.90;;;;;;5030694;28;19921;-70
2023/01/16 08:07:30;;;;;;;;;;;3.20;99.90;;;;;;5023122;28;207891;-69
2023/01/16 08:09:56;;;;;;;;;;;3.10;99.90;;;;;;5010997;28;19924;-70
2023/01/16 08:12:22;;;;;;;;;;;3.20;99.90;;;;;;5042273;28;19929;-70
2023/01/16 08:14:48;;;;;;;;;;;3.20;99.90;;;;;;5000139;28;112750;-69
2023/01/16 08:17:14;;;;;;;;;;;3.20;99.90;;;;;;5045730;28;19986;-70
2023/01/16 08:19:40;;;;;;;;;;;3.30;99.90;;;;;;4980536;28;197984;-69
2023/01/16 08:22:06;;;;;;;;;;;3.30;99.90;;;;;;5038518;28;19931;-70
2023/01/16 08:24:32;;;;;;;;;;;3.30;99.90;;;;;;4976427;28;209649;-70
2023/01/16 08:26:58;;;;;;;;;;;3.30;99.90;;;;;;5033874;28;19929;-70
2023/01/16 08:29:24;;;;;;;;;;;3.30;99.90;;;;;;4989641;28;240811;-71
2023/01/16 08:31:50;;;;;;;;;;;3.40;99.90;;;;;;5056551;28;20290;-70
2023/01/16 08:34:16;;;;;;;;;;;3.40;99.90;;;;;;4974444;28;180961;-71
2023/01/16 08:36:42;;;;;;;;;;;3.50;99.90;;;;;;5054655;28;19924;-71
2023/01/16 08:39:08;;;;;;;;;;;3.50;99.90;;;;;;4987484;28;208141;-71
2023/01/16 08:52:41;;;;;;;;;;;3.70;99.90;;;;;;4999478;28;218961;-71
2023/01/16 08:55:07;;;;;;;;;;;3.70;99.90;;;;;;4990935;28;19929;-71
2023/01/16 08:57:33;;;;;;;;;;;3.70;99.90;;;;;;5003694;28;208700;-70
2023/01/16 08:59:59;;;;;;;;;;;3.70;99.90;;;;;;5017836;28;20404;-70
2023/01/16 09:02:26;;;;;;;;;;;3.70;99.90;;;;;;5020937;28;207221;-70
2023/01/16 09:04:54;;;;;;;;;;;3.80;99.90;;;;;;4996340;28;205560;-70
2023/01/16 09:07:20;;;;;;;;;;;3.80;99.90;;;;;;5050703;28;19935;-69
2023/01/16 09:09:47;;;;;;;;;;;3.80;99.90;;;;;;4965652;28;62385;-70
2023/01/16 09:14:58;;;;;;;;;;;3.90;99.90;;;;;;4972739;28;208763;-70
2023/01/16 09:17:25;;;;;;;;;;;3.90;99.90;;;;;;5006650;28;208370;-70
2023/01/16 09:19:52;;;;;;;;;;;3.90;99.90;;;;;;4985850;28;230136;-71
2023/01/16 09:22:18;;;;;;;;;;;3.90;99.90;;;;;;5054945;28;20433;-72
2023/01/16 09:24:44;;;;;;;;;;;3.90;99.90;;;;;;4955027;28;162773;-71
2023/01/16 09:27:12;;;;;;;;;;;4.00;99.90;;;;;;5034261;28;19925;-70
2023/01/16 09:29:39;;;;;;;;;;;4.00;99.90;;;;;;4999207;28;207042;-71
2023/01/16 09:32:08;;;;;;;;;;;4.00;99.90;;;;;;5039685;28;19925;-70
2023/01/16 09:34:37;;;;;;;;;;;4.00;99.90;;;;;;4977785;28;211751;-70
2023/01/16 09:37:03;;;;;;;;;;;4.10;99.90;;;;;;5055313;28;19925;-71
2023/01/16 09:39:30;;;;;;;;;;;4.10;99.90;;;;;;4982501;28;215509;-70
2023/01/16 09:44:50;;;;;;;;;;;4.10;99.90;;;;;;4977792;28;219964;-71
2023/01/16 09:47:17;;;;;;;;;;;4.10;99.90;;;;;;5057608;28;19925;-70
2023/01/16 09:50:02;;;;;;;;;;;4.10;99.90;;;;;;4970949;28;142214;-70
2023/01/16 10:00:49;;;;;;;;;;;4.10;99.90;;;;;;5030880;28;20307;-70
2023/01/16 10:03:15;;;;;;;;;;;4.20;99.90;;;;;;4982751;28;209384;-70
2023/01/16 10:05:46;;;;;;;;;;;4.10;99.90;;;;;;5025272;28;19950;-72
2023/01/16 10:08:19;;;;;;;;;;;4.20;99.90;;;;;;4997336;28;207891;-70
2023/01/16 10:10:47;;;;;;;;;;;4.20;99.90;;;;;;5048353;28;19921;-72
2023/01/16 10:13:13;;;;;;;;;;;4.20;99.90;;;;;;4992067;28;206473;-71
2023/01/16 10:15:39;;;;;;;;;;;4.20;99.90;;;;;;5016195;28;20024;-71
2023/01/16 10:18:16;;;;;;;;;;;4.20;99.90;;;;;;4998686;28;209471;-71
2023/01/16 10:20:51;;;;;;;;;;;4.20;99.90;;;;;;5028027;28;19924;-71
2023/01/16 10:23:27;;;;;;;;;;;4.20;99.90;;;;;;4998927;28;207316;-72
2023/01/16 10:26:00;;;;;;;;;;;4.30;99.90;;;;;;5025805;28;19936;-71
2023/01/16 10:28:45;;;;;;;;;;;4.20;99.90;;;;;;4982245;28;223967;-71
2023/01/16 10:31:23;;;;;;;;;;;4.20;99.90;;;;;;5058926;28;19925;-73
2023/01/16 10:33:58;;;;;;;;;;;4.20;99.90;;;;;;4990133;28;208057;-72
2023/01/16 10:36:26;;;;;;;;;;;4.20;99.90;;;;;;5017800;28;19951;-71
2023/01/16 10:38:56;;;;;;;;;;;4.20;99.90;;;;;;4970918;28;206339;-71
2023/01/16 10:49:48;;;;;;;;;;;4.00;99.90;;;;;;4970200;28;292509;-71
2023/01/16 10:52:13;;;;;;;;;;;4.00;99.90;;;;;;5055363;28;19928;-71
2023/01/16 10:54:39;;;;;;;;;;;3.90;99.90;;;;;;4963870;28;210953;-71
2023/01/16 10:57:16;;;;;;;;;;;3.90;99.90;;;;;;5053566;28;20286;-71
2023/01/16 10:59:43;;;;;;;;;;;3.90;99.90;;;;;;4971507;28;206518;-72
2023/01/16 11:02:15;;;;;;;;;;;3.90;99.90;;;;;;5041834;28;20240;-71
2023/01/16 11:04:41;;;;;;;;;;;3.90;99.90;;;;;;4976779;28;94352;-70
2023/01/16 11:07:15;;;;;;;;;;;3.90;99.90;;;;;;5044592;28;20450;-71
2023/01/16 11:09:42;;;;;;;;;;;3.80;99.90;;;;;;4961050;28;176956;-71
2023/01/16 11:20:41;;;;;;;;;;;3.80;99.90;;;;;;4981914;28;19925;-72
2023/01/16 11:23:13;;;;;;;;;;;3.70;99.90;;;;;;4946814;28;151154;-71
2023/01/16 11:25:39;;;;;;;;;;;3.80;99.90;;;;;;4999881;28;19925;-72
2023/01/16 11:28:06;;;;;;;;;;;3.80;99.90;;;;;;4962604;28;96570;-72
2023/01/16 11:30:34;;;;;;;;;;;3.80;99.90;;;;;;4995314;28;19926;-72
2023/01/16 11:33:06;;;;;;;;;;;3.70;99.90;;;;;;4934386;28;206150;-72
2023/01/16 11:35:33;;;;;;;;;;;3.80;99.90;;;;;;4991335;28;19929;-72
2023/01/16 11:38:02;;;;;;;;;;;3.80;99.90;;;;;;4948843;28;216584;-72
2023/01/16 11:40:29;;;;;;;;;;;3.80;99.90;;;;;;4975207;28;19932;-72
2023/01/16 11:46:03;;;;;;;;;;;3.80;99.90;;;;;;5000152;28;19925;-71
2023/01/16 11:48:48;;;;;;;;;;;3.80;99.90;;;;;;4940152;28;191053;-71
2023/01/16 11:51:16;;;;;;;;;;;3.90;99.90;;;;;;4979575;28;20422;-72
2023/01/16 11:53:43;;;;;;;;;;;3.90;99.90;;;;;;4972746;28;96406;-71
2023/01/16 11:56:21;;;;;;;;;;;4.00;99.90;;;;;;5036038;28;19931;-71
2023/01/16 11:58:50;;;;;;;;;;;4.00;99.90;;;;;;4977255;28;214402;-72
2023/01/16 12:01:22;;;;;;;;;;;4.00;99.90;;;;;;5047279;28;20720;-71
2023/01/16 12:03:56;;;;;;;;;;;4.00;99.90;;;;;;4983559;28;203895;-72
2023/01/16 12:06:33;;;;;;;;;;;4.00;99.90;;;;;;5038158;28;19940;-72
2023/01/16 12:09:14;;;;;;;;;;;4.00;99.90;;;;;;4995178;28;208387;-72
2023/01/16 12:11:50;;;;;;;;;;;4.00;99.90;;;;;;5034988;28;19927;-72
2023/01/16 12:14:38;;;;;;;;;;;4.00;99.90;;;;;;4990970;28;207970;-72
2023/01/16 12:17:07;;;;;;;;;;;4.00;99.90;;;;;;5054387;28;19936;-71
2023/01/16 12:19:33;;;;;;;;;;;4.00;99.90;;;;;;4979881;28;206548;-72
2023/01/16 12:22:11;;;;;;;;;;;4.00;99.90;;;;;;5060707;28;19935;-72
2023/01/16 12:24:40;;;;;;;;;;;4.00;99.90;;;;;;4973490;28;221850;-71
2023/01/16 12:27:25;;;;;;;;;;;4.00;99.90;;;;;;5059698;28;20710;-71
2023/01/16 12:29:59;;;;;;;;;;;4.10;99.90;;;;;;4970756;28;245103;-72
2023/01/16 12:32:33;;;;;;;;;;;4.10;99.90;;;;;;5010463;28;228029;-72
2023/01/16 12:35:09;;;;;;;;;;;4.10;99.90;;;;;;4978591;28;19936;-72
2023/01/16 12:37:53;;;;;;;;;;;4.20;99.90;;;;;;4988374;28;209948;-71
2023/01/16 12:40:19;;;;;;;;;;;4.30;99.90;;;;;;5012795;28;19924;-72
2023/01/16 12:45:55;;;;;;;;;;;4.30;99.90;;;;;;5062777;28;19925;-72
2023/01/16 12:48:27;;;;;;;;;;;4.30;99.90;;;;;;5000404;28;209846;-72
2023/01/16 12:51:12;;;;;;;;;;;4.40;99.90;;;;;;5041174;28;19924;-72
2023/01/16 12:53:46;;;;;;;;;;;4.40;99.90;;;;;;4995518;28;207898;-72
2023/01/16 12:56:12;;;;;;;;;;;4.40;99.90;;;;;;5054405;28;20687;-72
2023/01/16 12:58:42;;;;;;;;;;;4.40;99.90;;;;;;4990773;28;202470;-72
2023/01/16 13:01:14;;;;;;;;;;;4.30;99.90;;;;;;5054461;28;20665;-72
2023/01/16 13:03:49;;;;;;;;;;;4.40;99.90;;;;;;4982158;28;204929;-72
2023/01/16 13:06:17;;;;;;;;;;;4.40;99.90;;;;;;5017429;28;19940;-72
2023/01/16 13:08:51;;;;;;;;;;;4.30;99.90;;;;;;4988675;28;205979;-72
2023/01/16 13:14:18;;;;;;;;;;;4.40;99.90;;;;;;4944645;28;75102;-72
2023/01/16 13:16:48;;;;;;;;;;;4.40;99.90;;;;;;5016891;28;19959;-72
2023/01/16 13:19:17;;;;;;;;;;;4.40;99.90;;;;;;4940288;28;133362;-72
2023/01/16 13:21:57;;;;;;;;;;;4.40;99.90;;;;;;5016937;28;19925;-72
2023/01/16 13:24:29;;;;;;;;;;;4.50;99.90;;;;;;4963089;28;207476;-72
2023/01/16 13:27:01;;;;;;;;;;;4.40;99.90;;;;;;5014939;28;19936;-72
2023/01/16 13:29:46;;;;;;;;;;;4.50;99.90;;;;;;4950051;28;204878;-72
2023/01/16 13:32:24;;;;;;;;;;;4.50;99.90;;;;;;5017715;28;20457;-72
2023/01/16 13:34:53;;;;;;;;;;;4.50;99.90;;;;;;4956737;28;19929;-72
2023/01/16 13:37:19;;;;;;;;;;;4.50;99.90;;;;;;5019878;28;19925;-72
2023/01/16 13:40:05;;;;;;;;;;;4.50;99.90;;;;;;4969977;28;206956;-72
2023/01/16 13:42:33;;;;;;;;;;;4.60;99.90;;;;;;4986778;28;162010;-71
2023/01/16 13:47:45;;;;;;;;;;;4.50;99.90;;;;;;4974860;28;97034;-71
2023/01/16 13:50:14;;;;;;;;;;;4.50;99.90;;;;;;5010605;28;20309;-74
2023/01/16 13:52:42;;;;;;;;;;;4.50;99.90;;;;;;4996322;28;207856;-72
2023/01/16 13:55:20;;;;;;;;;;;4.50;99.90;;;;;;5027792;28;20405;-72
2023/01/16 13:57:46;;;;;;;;;;;4.60;99.90;;;;;;5009277;28;210796;-72
2023/01/16 14:00:13;;;;;;;;;;;4.60;99.90;;;;;;5044024;28;19939;-72
2023/01/16 14:02:45;;;;;;;;;;;4.60;99.90;;;;;;5000140;28;209367;-71
2023/01/16 14:05:11;;;;;;;;;;;4.60;99.90;;;;;;5014369;28;19925;-72
2023/01/16 14:10:43;;;;;;;;;;;4.70;99.90;;;;;;5032448;28;19921;-72
2023/01/16 14:13:24;;;;;;;;;;;4.70;99.90;;;;;;4969935;28;205174;-72
2023/01/16 14:18:47;;;;;;;;;;;4.70;99.90;;;;;;4985176;28;75741;-73
2023/01/16 14:21:21;;;;;;;;;;;4.70;99.90;;;;;;5039623;28;20425;-73
2023/01/16 14:24:01;;;;;;;;;;;4.70;99.90;;;;;;4987354;28;206521;-74
2023/01/16 14:26:39;;;;;;;;;;;4.70;99.90;;;;;;5036814;28;19935;-73
2023/01/16 14:29:14;;;;;;;;;;;4.70;99.90;;;;;;4990678;28;131316;-73
2023/01/16 14:32:00;;;;;;;;;;;4.80;99.90;;;;;;5044179;28;19931;-72
2023/01/16 14:34:28;;;;;;;;;;;4.70;99.90;;;;;;4971360;28;75187;-74
2023/01/16 14:36:59;;;;;;;;;;;4.70;99.90;;;;;;5059056;28;19924;-73
2023/01/16 14:39:29;;;;;;;;;;;4.70;99.90;;;;;;4985871;28;160859;-73
2023/01/16 14:56:33;;;;;;;;;;;4.70;99.90;;;;;;4986363;28;19929;-73
2023/01/16 14:59:19;;;;;;;;;;;4.70;99.90;;;;;;4969989;28;135239;-73
2023/01/16 15:04:44;;;;;;;;;;;4.70;99.90;;;;;;4938838;28;212021;-73
2023/01/16 15:07:10;;;;;;;;;;;4.70;99.90;;;;;;5008898;28;19926;-73
2023/01/16 15:09:38;;;;;;;;;;;4.70;99.90;;;;;;4952614;28;127720;-73
2023/01/16 15:12:11;;;;;;;;;;;4.70;99.90;;;;;;5014441;28;19925;-73
2023/01/16 15:14:37;;;;;;;;;;;4.70;99.90;;;;;;4954056;28;206125;-73
2023/01/16 15:22:41;;;;;;;;;;;4.70;99.90;;;;;;4955448;28;163915;-72
2023/01/16 15:25:14;;;;;;;;;;;4.70;99.90;;;;;;4999502;28;19924;-72
2023/01/16 15:27:42;;;;;;;;;;;4.70;99.90;;;;;;5001999;28;207505;-73
2023/01/16 15:30:17;;;;;;;;;;;4.70;99.90;;;;;;5047704;28;19959;-73
2023/01/16 15:32:53;;;;;;;;;;;4.70;99.90;;;;;;5017281;28;215333;-72
2023/01/16 15:35:22;;;;;;;;;;;4.70;99.90;;;;;;5059261;28;19912;-71
2023/01/16 15:37:49;;;;;;;;;;;4.60;99.90;;;;;;5030941;28;209374;-71
2023/01/16 15:40:21;;;;;;;;;;;4.70;99.90;;;;;;5040507;28;19924;-71
2023/01/16 15:48:35;;;;;;;;;;;4.70;99.90;;;;;;4989059;28;168386;-72
2023/01/16 15:51:04;;;;;;;;;;;4.70;99.90;;;;;;5048460;28;20376;-73
2023/01/16 15:53:32;;;;;;;;;;;4.70;99.90;;;;;;4993301;28;210759;-72
2023/01/16 15:56:01;;;;;;;;;;;4.70;99.90;;;;;;5043871;28;20316;-71
2023/01/16 15:58:27;;;;;;;;;;;4.70;99.90;;;;;;4996309;28;209176;-72
2023/01/16 16:00:55;;;;;;;;;;;4.70;99.90;;;;;;5043750;28;20224;-72
2023/01/16 16:03:22;;;;;;;;;;;4.70;99.90;;;;;;4981124;28;165677;-72
2023/01/16 16:05:53;;;;;;;;;;;4.70;99.90;;;;;;5051025;28;19928;-73
2023/01/16 16:08:21;;;;;;;;;;;4.70;99.90;;;;;;4984651;28;226415;-73
2023/01/16 16:13:34;;;;;;;;;;;4.60;99.90;;;;;;4992107;28;207473;-73
2023/01/16 16:18:57;;;;;;;;;;;4.70;99.90;;;;;;5003292;28;207941;-71
2023/01/16 16:21:24;;;;;;;;;;;4.70;99.90;;;;;;5053681;28;19936;-72